AZU2985 SBCT-SBPA
Flight info
| Callsign | AZU2985 |
|---|---|
| Flight time | N/A |
| Altitude | 30000 |
| Route | SAVLU DCT VUKMO |
| Aircraft | E195/M-SDE3GILORVW/S |
Departure
| Time | 2026-05-04 14:56 |
|---|---|
| Airport | Curitiba-Afonso Pena International Airport (SBCT) |
Arrival
| Time | N/A |
|---|---|
| Airport | Porto Alegre-Salgado Filho International Airport (SBPA) |
| Time | Latitude | Longitude | Altitude | Speed | Heading |
|---|---|---|---|---|---|
| 2026-05-04 14:33 | -25.53563 | -49.17229 | 2983 ft | 0 kts | 210° |
| 2026-05-04 14:49 | -25.53545 | -49.17216 | 2983 ft | 4 kts | 219° |
| 2026-05-04 14:49 | -25.53525 | -49.17196 | 2983 ft | 4 kts | 221° |
| 2026-05-04 14:49 | -25.53509 | -49.17183 | 2983 ft | 4 kts | 149° |
| 2026-05-04 14:49 | -25.53492 | -49.17200 | 2983 ft | 4 kts | 134° |
| 2026-05-04 14:50 | -25.53480 | -49.17213 | 2984 ft | 0 kts | 134° |
| 2026-05-04 14:53 | -25.53489 | -49.17202 | 2983 ft | 5 kts | 135° |
| 2026-05-04 14:53 | -25.53530 | -49.17161 | 2983 ft | 11 kts | 137° |
| 2026-05-04 14:53 | -25.53597 | -49.17091 | 2982 ft | 14 kts | 136° |
| 2026-05-04 14:53 | -25.53629 | -49.16995 | 2982 ft | 14 kts | 70° |
| 2026-05-04 14:54 | -25.53610 | -49.16890 | 2981 ft | 14 kts | 88° |
| 2026-05-04 14:54 | -25.53607 | -49.16775 | 2979 ft | 13 kts | 83° |
| 2026-05-04 14:54 | -25.53569 | -49.16771 | 2979 ft | 0 kts | 314° |
| 2026-05-04 14:55 | -25.53544 | -49.16799 | 2979 ft | 25 kts | 314° |
| 2026-05-04 14:55 | -25.53270 | -49.17106 | 2984 ft | 85 kts | 314° |
| 2026-05-04 14:55 | -25.52722 | -49.17714 | 2987 ft | 139 kts | 315° |
| 2026-05-04 14:55 | -25.51942 | -49.18546 | 3244 ft | 156 kts | 315° |
| 2026-05-04 14:56 | -25.51210 | -49.19395 | 3802 ft | 167 kts | 310° |
| 2026-05-04 14:56 | -25.50808 | -49.20748 | 3858 ft | 202 kts | 262° |
| 2026-05-04 14:56 | -25.51408 | -49.22171 | 4519 ft | 208 kts | 235° |
| 2026-05-04 14:56 | -25.52307 | -49.23427 | 5165 ft | 213 kts | 234° |
| 2026-05-04 14:57 | -25.53165 | -49.24813 | 5750 ft | 222 kts | 237° |
| 2026-05-04 14:57 | -25.54018 | -49.26308 | 6237 ft | 234 kts | 239° |
| 2026-05-04 14:57 | -25.54919 | -49.27855 | 6761 ft | 245 kts | 238° |
| 2026-05-04 14:57 | -25.55866 | -49.29448 | 7345 ft | 258 kts | 238° |
| 2026-05-04 14:58 | -25.56908 | -49.31191 | 7761 ft | 280 kts | 238° |
| 2026-05-04 14:58 | -25.58027 | -49.33030 | 8265 ft | 294 kts | 238° |
| 2026-05-04 14:58 | -25.59189 | -49.34912 | 7971 ft | 296 kts | 237° |
| 2026-05-04 14:58 | -25.59994 | -49.36144 | 7979 ft | 287 kts | 231° |
| 2026-05-04 14:59 | -25.62223 | -49.37655 | 8559 ft | 295 kts | 191° |
| 2026-05-04 14:59 | -25.64275 | -49.37616 | 9472 ft | 300 kts | 172° |
| 2026-05-04 14:59 | -25.68425 | -49.36721 | 11120 ft | 315 kts | 171° |
| 2026-05-04 15:00 | -25.70615 | -49.36232 | 11815 ft | 324 kts | 171° |
| 2026-05-04 15:00 | -25.72831 | -49.35715 | 12647 ft | 327 kts | 171° |
| 2026-05-04 15:00 | -25.75046 | -49.35178 | 13505 ft | 330 kts | 171° |
| 2026-05-04 15:01 | -25.79571 | -49.34004 | 15198 ft | 338 kts | 170° |
| 2026-05-04 15:01 | -25.81881 | -49.33356 | 16048 ft | 342 kts | 170° |
| 2026-05-04 15:01 | -25.84225 | -49.32779 | 16852 ft | 346 kts | 173° |
| 2026-05-04 15:01 | -25.86583 | -49.32245 | 17601 ft | 349 kts | 173° |
| 2026-05-04 15:02 | -25.88986 | -49.31689 | 18322 ft | 353 kts | 173° |
| 2026-05-04 15:02 | -25.91380 | -49.31130 | 19019 ft | 356 kts | 173° |
| 2026-05-04 15:02 | -25.93833 | -49.30554 | 19697 ft | 359 kts | 173° |
| 2026-05-04 15:02 | -25.96266 | -49.29982 | 20352 ft | 362 kts | 173° |
| 2026-05-04 15:03 | -25.98752 | -49.29398 | 21005 ft | 365 kts | 173° |
| 2026-05-04 15:03 | -26.01259 | -49.28807 | 21654 ft | 368 kts | 173° |
| 2026-05-04 15:03 | -26.03754 | -49.28220 | 22254 ft | 371 kts | 173° |
| 2026-05-04 15:03 | -26.06301 | -49.27618 | 22840 ft | 374 kts | 173° |
| 2026-05-04 15:04 | -26.08864 | -49.27011 | 23394 ft | 376 kts | 173° |
| 2026-05-04 15:04 | -26.11431 | -49.26721 | 23858 ft | 371 kts | 189° |
| 2026-05-04 15:04 | -26.13091 | -49.27091 | 24178 ft | 366 kts | 202° |
| 2026-05-04 15:04 | -26.16278 | -49.28380 | 24845 ft | 367 kts | 203° |
| 2026-05-04 15:05 | -26.18703 | -49.29337 | 25302 ft | 370 kts | 203° |
| 2026-05-04 15:05 | -26.20325 | -49.29977 | 25625 ft | 371 kts | 203° |
| 2026-05-04 15:05 | -26.22758 | -49.30944 | 26095 ft | 373 kts | 203° |
| 2026-05-04 15:05 | -26.25235 | -49.31936 | 26557 ft | 375 kts | 203° |
| 2026-05-04 15:06 | -26.27666 | -49.32914 | 26983 ft | 378 kts | 204° |
| 2026-05-04 15:06 | -26.30147 | -49.33912 | 27416 ft | 379 kts | 204° |
| 2026-05-04 15:06 | -26.32647 | -49.34922 | 27817 ft | 382 kts | 204° |
| 2026-05-04 15:07 | -26.37676 | -49.36963 | 28554 ft | 386 kts | 204° |
| 2026-05-04 15:07 | -26.40190 | -49.37983 | 28938 ft | 387 kts | 204° |
| 2026-05-04 15:07 | -26.42704 | -49.39004 | 29299 ft | 388 kts | 204° |
| 2026-05-04 15:07 | -26.45268 | -49.40048 | 29645 ft | 390 kts | 204° |
| 2026-05-04 15:08 | -26.47812 | -49.41083 | 29954 ft | 392 kts | 204° |
| 2026-05-04 15:08 | -26.50372 | -49.42127 | 30350 ft | 391 kts | 204° |
| 2026-05-04 15:08 | -26.52941 | -49.43179 | 30325 ft | 401 kts | 205° |
| 2026-05-04 15:09 | -26.58323 | -49.45408 | 30170 ft | 422 kts | 204° |
| 2026-05-04 15:09 | -26.63907 | -49.47722 | 30176 ft | 434 kts | 204° |
| 2026-05-04 15:10 | -26.72457 | -49.51246 | 30161 ft | 435 kts | 204° |
| 2026-05-04 15:11 | -26.80933 | -49.54754 | 30177 ft | 435 kts | 204° |
| 2026-05-04 15:11 | -26.86640 | -49.57119 | 30188 ft | 435 kts | 204° |
| 2026-05-04 15:12 | -26.92294 | -49.59467 | 30187 ft | 435 kts | 204° |
| 2026-05-04 15:12 | -26.97968 | -49.61823 | 30187 ft | 435 kts | 204° |
| 2026-05-04 15:13 | -27.03618 | -49.64175 | 30189 ft | 435 kts | 204° |
| 2026-05-04 15:13 | -27.09311 | -49.66544 | 30170 ft | 436 kts | 205° |
| 2026-05-04 15:14 | -27.15016 | -49.68919 | 30177 ft | 436 kts | 205° |
| 2026-05-04 15:14 | -27.20694 | -49.71289 | 30173 ft | 436 kts | 205° |
| 2026-05-04 15:15 | -27.26385 | -49.73664 | 30168 ft | 436 kts | 204° |
| 2026-05-04 15:15 | -27.32056 | -49.76031 | 30166 ft | 435 kts | 205° |
| 2026-05-04 15:16 | -27.40579 | -49.79611 | 30165 ft | 436 kts | 205° |
| 2026-05-04 15:17 | -27.49071 | -49.83168 | 30174 ft | 436 kts | 205° |
| 2026-05-04 15:17 | -27.57587 | -49.86743 | 30167 ft | 436 kts | 205° |
| 2026-05-04 15:18 | -27.63263 | -49.89131 | 30169 ft | 436 kts | 205° |
| 2026-05-04 15:19 | -27.71785 | -49.92721 | 30154 ft | 435 kts | 205° |
| 2026-05-04 15:19 | -27.80312 | -49.96318 | 30153 ft | 436 kts | 205° |
| 2026-05-04 15:20 | -27.85954 | -49.98702 | 30159 ft | 436 kts | 205° |
| 2026-05-04 15:20 | -27.91633 | -50.01106 | 30155 ft | 436 kts | 205° |
| 2026-05-04 15:21 | -27.97320 | -50.03512 | 30155 ft | 436 kts | 205° |
| 2026-05-04 15:22 | -28.05825 | -50.07119 | 30154 ft | 435 kts | 205° |
| 2026-05-04 15:22 | -28.14343 | -50.10736 | 30156 ft | 436 kts | 205° |
| 2026-05-04 15:23 | -28.19997 | -50.13142 | 30159 ft | 436 kts | 205° |
| 2026-05-04 15:23 | -28.25692 | -50.15563 | 30155 ft | 435 kts | 205° |
| 2026-05-04 15:24 | -28.37018 | -50.20399 | 30162 ft | 436 kts | 205° |
| 2026-05-04 15:25 | -28.42683 | -50.22819 | 30160 ft | 436 kts | 205° |
| 2026-05-04 15:26 | -28.51196 | -50.26463 | 30161 ft | 435 kts | 205° |
| 2026-05-04 15:26 | -28.59703 | -50.30109 | 30148 ft | 435 kts | 205° |
| 2026-05-04 15:27 | -28.62485 | -50.31297 | 29770 ft | 424 kts | 205° |
| 2026-05-04 15:27 | -28.67860 | -50.33597 | 28852 ft | 403 kts | 205° |
| 2026-05-04 15:28 | -28.72918 | -50.35965 | 27783 ft | 383 kts | 216° |
| 2026-05-04 15:28 | -28.75040 | -50.37692 | 27318 ft | 373 kts | 220° |
| 2026-05-04 15:28 | -28.79172 | -50.41204 | 26315 ft | 366 kts | 220° |
| 2026-05-04 15:29 | -28.81202 | -50.42929 | 25838 ft | 367 kts | 220° |
| 2026-05-04 15:30 | -28.89403 | -50.49896 | 23881 ft | 364 kts | 220° |
| 2026-05-04 15:30 | -28.95419 | -50.55013 | 22438 ft | 357 kts | 220° |
| 2026-05-04 15:31 | -28.99379 | -50.58384 | 21487 ft | 352 kts | 220° |
| 2026-05-04 15:31 | -29.01356 | -50.60063 | 21026 ft | 351 kts | 220° |
| 2026-05-04 15:32 | -29.07175 | -50.65015 | 19643 ft | 346 kts | 220° |
| 2026-05-04 15:32 | -29.11022 | -50.68263 | 18732 ft | 343 kts | 217° |
| 2026-05-04 15:33 | -29.15622 | -50.69744 | 17825 ft | 354 kts | 187° |
| 2026-05-04 15:34 | -29.22977 | -50.70089 | 16375 ft | 348 kts | 187° |
| 2026-05-04 15:34 | -29.25366 | -50.70222 | 15900 ft | 346 kts | 187° |
| 2026-05-04 15:34 | -29.30134 | -50.70496 | 15081 ft | 340 kts | 187° |
| 2026-05-04 15:35 | -29.34803 | -50.70700 | 14340 ft | 328 kts | 187° |
| 2026-05-04 15:35 | -29.37084 | -50.70794 | 14027 ft | 322 kts | 187° |
| 2026-05-04 15:35 | -29.39283 | -50.70885 | 13689 ft | 316 kts | 186° |
| 2026-05-04 15:36 | -29.43604 | -50.71067 | 13035 ft | 306 kts | 187° |
| 2026-05-04 15:36 | -29.45703 | -50.71163 | 12760 ft | 302 kts | 187° |
| 2026-05-04 15:36 | -29.47808 | -50.71257 | 12457 ft | 302 kts | 187° |
| 2026-05-04 15:37 | -29.49893 | -50.71350 | 12147 ft | 303 kts | 186° |
| 2026-05-04 15:37 | -29.52013 | -50.71448 | 11848 ft | 303 kts | 186° |
| 2026-05-04 15:37 | -29.54114 | -50.71542 | 11515 ft | 304 kts | 186° |
| 2026-05-04 15:37 | -29.56238 | -50.71634 | 11195 ft | 303 kts | 186° |
| 2026-05-04 15:38 | -29.58315 | -50.71719 | 10914 ft | 301 kts | 186° |
| 2026-05-04 15:38 | -29.60421 | -50.71808 | 10597 ft | 302 kts | 187° |
| 2026-05-04 15:38 | -29.62511 | -50.71901 | 10280 ft | 300 kts | 186° |
| 2026-05-04 15:38 | -29.64585 | -50.71988 | 9968 ft | 296 kts | 186° |
| 2026-05-04 15:39 | -29.66640 | -50.72076 | 9681 ft | 290 kts | 186° |
| 2026-05-04 15:39 | -29.68625 | -50.72168 | 9391 ft | 286 kts | 186° |
| 2026-05-04 15:39 | -29.72533 | -50.72516 | 8683 ft | 277 kts | 203° |
| 2026-05-04 15:40 | -29.74088 | -50.73708 | 8409 ft | 263 kts | 228° |
| 2026-05-04 15:40 | -29.75341 | -50.75240 | 8047 ft | 262 kts | 231° |
| 2026-05-04 15:40 | -29.76574 | -50.76749 | 7705 ft | 263 kts | 229° |
| 2026-05-04 15:40 | -29.77939 | -50.78123 | 7449 ft | 260 kts | 211° |
| 2026-05-04 15:41 | -29.79676 | -50.78093 | 6975 ft | 270 kts | 146° |
| 2026-05-04 15:41 | -29.80185 | -50.75931 | 5405 ft | 347 kts | 62° |
| 2026-05-04 15:41 | -29.78792 | -50.74150 | 7401 ft | 225 kts | 26° |
| 2026-05-04 15:41 | -29.78257 | -50.74125 | 10367 ft | 49 kts | 263° |